Terminal Aerodrome Forecast
Issued by NWS

Home | Current Version | Previous Version | Text Only | Print | Product List | Glossary On
Versions: 1 2 3 4 5 6 7 8 9 10 11 12 13 14
000
FTUS43 KFGF 190500
TAFDVL
TAF
KDVL 190520Z 1906/2006 24010KT P6SM OVC110
     FM190700 32012G20KT P6SM -SHRA OVC050
     FM191000 33020G29KT P6SM -SHRA OVC025
     FM191600 32024G32KT P6SM OVC050
     FM200200 33018G26KT P6SM BKN050
      AMD LTD TO CLD VIS AND WIND=

USA.gov is the U.S. government's official web portal to all federal, state and local government web resources and services.